createdAt,value
2022-10-17T00:03:58.056Z,18.59
2022-10-17T00:09:02.136Z,18.58
2022-10-17T00:14:05.061Z,18.57
2022-10-17T00:19:08.311Z,18.57
2022-10-17T00:24:12.422Z,18.61
2022-10-17T00:29:15.102Z,18.61
2022-10-17T00:34:17.768Z,18.61
2022-10-17T00:39:22.058Z,18.65
2022-10-17T00:45:00.968Z,18.64
2022-10-17T00:50:04.085Z,18.65
2022-10-17T00:55:11.611Z,18.65
2022-10-17T01:00:15.720Z,18.64
2022-10-17T01:05:19.718Z,18.64
2022-10-17T01:10:24.034Z,18.64
2022-10-17T01:15:37.243Z,18.63
2022-10-17T01:21:03.225Z,18.64
2022-10-17T01:26:15.552Z,18.62
2022-10-17T01:31:22.991Z,18.59
2022-10-17T01:36:38.224Z,18.59
2022-10-17T01:41:43.692Z,18.59
2022-10-17T01:46:51.076Z,18.56
2022-10-17T01:51:56.775Z,18.56
2022-10-17T01:57:00.990Z,18.55
2022-10-17T02:02:07.227Z,18.56
2022-10-17T02:07:12.261Z,18.54
2022-10-17T02:12:46.941Z,18.55
2022-10-17T02:17:59.072Z,18.51
2022-10-17T02:23:05.387Z,18.53
2022-10-17T02:28:17.752Z,18.52
2022-10-17T02:33:24.678Z,18.52
2022-10-17T02:38:28.230Z,18.51
2022-10-17T02:43:31.211Z,18.49
2022-10-17T02:48:39.588Z,18.49
2022-10-17T02:53:48.854Z,18.49
2022-10-17T02:58:56.107Z,18.50
2022-10-17T03:04:08.350Z,18.49
2022-10-17T03:09:11.225Z,18.46
2022-10-17T03:14:13.998Z,18.47
2022-10-17T03:19:18.786Z,18.47
2022-10-17T03:24:21.672Z,18.47
2022-10-17T03:29:24.550Z,18.44
2022-10-17T03:34:28.734Z,18.45
2022-10-17T03:39:31.528Z,18.44
2022-10-17T03:44:34.385Z,18.44
2022-10-17T03:49:38.509Z,18.42
2022-10-17T03:54:41.735Z,18.41
2022-10-17T03:59:44.566Z,18.44
2022-10-17T04:04:53.655Z,18.42
2022-10-17T04:09:56.490Z,18.40
2022-10-17T04:14:59.556Z,18.40
2022-10-17T04:20:04.200Z,18.41
2022-10-17T04:25:07.758Z,18.41
2022-10-17T04:30:14.028Z,18.39
2022-10-17T04:35:18.754Z,18.39
2022-10-17T04:40:26.565Z,18.40
2022-10-17T04:45:29.730Z,18.39
2022-10-17T04:50:40.234Z,18.40
2022-10-17T04:56:00.876Z,18.39
2022-10-17T05:01:08.743Z,18.38
2022-10-17T05:06:16.829Z,18.39
2022-10-17T05:11:26.008Z,18.37
2022-10-17T05:16:29.510Z,18.36
2022-10-17T05:21:34.183Z,18.36
2022-10-17T05:26:37.002Z,18.36
2022-10-17T05:31:39.857Z,18.36
2022-10-17T05:36:45.267Z,18.25
2022-10-17T05:41:51.206Z,18.33
2022-10-17T05:46:54.126Z,18.35
2022-10-17T05:51:58.942Z,18.36
2022-10-17T05:57:02.015Z,18.36
2022-10-17T06:02:07.958Z,18.36
2022-10-17T06:07:12.459Z,18.36
2022-10-17T06:12:15.890Z,18.39
2022-10-17T06:17:19.635Z,18.38
2022-10-17T06:22:23.831Z,18.41
2022-10-17T06:27:26.539Z,18.45
2022-10-17T06:32:29.426Z,18.47
2022-10-17T06:37:36.622Z,18.51
2022-10-17T06:42:43.731Z,18.54
2022-10-17T06:48:03.175Z,18.59
2022-10-17T06:53:25.873Z,18.65
2022-10-17T06:58:44.099Z,18.70
2022-10-17T07:03:59.823Z,18.76
2022-10-17T07:09:06.842Z,18.79
2022-10-17T07:14:12.058Z,18.86
2022-10-17T07:19:14.816Z,18.89
2022-10-17T07:24:18.916Z,18.95
2022-10-17T07:29:25.875Z,19.05
2022-10-17T07:34:34.552Z,19.06
2022-10-17T07:39:39.962Z,19.07
2022-10-17T07:44:42.775Z,19.19
2022-10-17T07:49:45.968Z,19.22
2022-10-17T07:54:50.372Z,19.29
2022-10-17T07:59:54.257Z,19.31
2022-10-17T08:04:56.956Z,19.34
2022-10-17T08:10:00.987Z,19.32
2022-10-17T08:15:04.485Z,19.37
2022-10-17T08:20:07.854Z,19.41
2022-10-17T08:25:12.199Z,19.41
2022-10-17T08:30:15.032Z,19.46
2022-10-17T08:35:18.379Z,19.44
2022-10-17T08:40:24.964Z,19.47
2022-10-17T08:45:31.424Z,19.48
2022-10-17T08:50:37.835Z,19.43
2022-10-17T08:55:45.900Z,19.51
2022-10-17T09:00:55.296Z,19.36
2022-10-17T09:06:07.040Z,19.42
2022-10-17T09:11:18.482Z,19.46
2022-10-17T09:16:38.261Z,19.51
2022-10-17T09:21:45.021Z,19.43
2022-10-17T09:26:49.096Z,19.44
2022-10-17T09:32:03.234Z,19.46
2022-10-17T09:37:12.178Z,19.49
2022-10-17T09:42:19.254Z,19.46
2022-10-17T09:47:27.362Z,19.48
2022-10-17T09:52:32.470Z,19.43
2022-10-17T09:57:55.429Z,19.41
2022-10-17T10:03:18.904Z,19.40
2022-10-17T10:08:31.054Z,19.41
2022-10-17T10:13:36.057Z,19.38
2022-10-17T10:18:38.745Z,19.43
2022-10-17T10:23:42.910Z,19.44
2022-10-17T10:28:53.209Z,19.44
2022-10-17T10:33:57.638Z,19.46
2022-10-17T10:39:03.885Z,19.45
2022-10-17T10:44:13.552Z,19.50
2022-10-17T10:49:30.558Z,19.48
2022-10-17T10:54:36.633Z,19.50
2022-10-17T10:59:44.272Z,19.50
2022-10-17T11:04:50.779Z,19.50
2022-10-17T11:09:57.410Z,19.50
2022-10-17T11:15:08.741Z,19.50
2022-10-17T11:20:16.436Z,19.51
2022-10-17T11:25:30.567Z,19.51
2022-10-17T11:35:53.603Z,19.54
2022-10-17T11:40:59.966Z,19.54
2022-10-17T11:46:08.298Z,19.56
2022-10-17T11:56:42.713Z,19.58
2022-10-17T12:01:50.321Z,19.59
2022-10-17T12:07:03.598Z,19.61
2022-10-17T12:12:06.452Z,19.64
2022-10-17T12:17:26.930Z,19.64
2022-10-17T12:22:29.826Z,19.66
2022-10-17T12:27:42.339Z,19.70
2022-10-17T12:33:07.073Z,19.69
2022-10-17T12:38:24.551Z,19.71
2022-10-17T12:49:05.965Z,19.71
2022-10-17T12:54:13.202Z,19.72
2022-10-17T12:59:18.103Z,19.73
2022-10-17T13:04:22.347Z,19.74
2022-10-17T13:09:27.406Z,19.75
2022-10-17T13:14:30.857Z,19.77
2022-10-17T13:19:45.537Z,19.78
2022-10-17T13:24:48.647Z,19.79
2022-10-17T13:29:51.453Z,19.80
2022-10-17T13:35:09.779Z,19.74
2022-10-17T13:40:40.969Z,19.80
2022-10-17T13:45:41.292Z,19.80
2022-10-17T13:50:48.787Z,19.79
2022-10-17T13:56:09.761Z,19.81
2022-10-17T14:01:21.576Z,19.83
2022-10-17T14:06:26.294Z,19.84
2022-10-17T14:11:33.984Z,19.83
2022-10-17T14:16:39.015Z,19.85
2022-10-17T14:21:44.753Z,19.86
2022-10-17T14:26:48.716Z,19.87
2022-10-17T14:31:53.567Z,19.87
2022-10-17T14:36:57.957Z,19.85
2022-10-17T14:42:04.239Z,19.88
2022-10-17T14:47:31.154Z,19.86
2022-10-17T14:52:34.308Z,19.87
2022-10-17T14:57:43.523Z,19.90
2022-10-17T15:02:46.911Z,19.86
2022-10-17T15:07:51.026Z,19.91
2022-10-17T15:12:58.883Z,19.92
2022-10-17T15:18:08.095Z,19.91
2022-10-17T15:23:12.108Z,19.93
2022-10-17T15:28:14.819Z,19.93
2022-10-17T15:33:17.501Z,19.93
2022-10-17T15:38:21.547Z,19.94
2022-10-17T15:43:24.579Z,19.96
2022-10-17T15:48:30.378Z,19.97
2022-10-17T15:53:34.498Z,19.99
2022-10-17T15:58:38.552Z,19.99
2022-10-17T16:03:41.325Z,20.00
2022-10-17T16:08:45.377Z,20.01
2022-10-17T16:13:51.815Z,20.02
2022-10-17T16:18:54.620Z,19.99
2022-10-17T16:23:58.844Z,20.03
2022-10-17T16:29:03.060Z,20.05
2022-10-17T16:34:06.785Z,20.05
2022-10-17T16:39:10.989Z,20.06
2022-10-17T16:44:14.543Z,20.07
2022-10-17T16:49:18.251Z,20.06
2022-10-17T16:54:22.500Z,20.07
2022-10-17T16:59:25.414Z,20.06
2022-10-17T17:04:28.126Z,20.06
2022-10-17T17:09:32.175Z,20.05
2022-10-17T17:14:35.072Z,20.04
2022-10-17T17:19:37.805Z,20.01
2022-10-17T17:24:41.969Z,19.94
2022-10-17T17:29:44.700Z,19.96
2022-10-17T17:34:47.406Z,19.92
2022-10-17T17:39:51.412Z,19.91
2022-10-17T17:44:54.146Z,19.88
2022-10-17T17:49:56.897Z,19.86
2022-10-17T17:55:00.987Z,19.85
2022-10-17T18:00:04.559Z,19.82
2022-10-17T18:05:08.530Z,19.83
2022-10-17T18:15:18.430Z,19.83
2022-10-17T18:20:21.157Z,19.82
2022-10-17T18:25:25.282Z,19.83
2022-10-17T18:30:29.934Z,19.83
2022-10-17T18:35:35.704Z,19.83
2022-10-17T18:40:39.804Z,19.82
2022-10-17T18:45:42.516Z,19.82
2022-10-17T18:50:45.272Z,19.82
2022-10-17T18:55:49.345Z,19.81
2022-10-17T19:00:52.407Z,19.80
2022-10-17T19:05:56.748Z,19.79
2022-10-17T19:11:07.392Z,19.78
2022-10-17T19:16:11.636Z,19.79
2022-10-17T19:21:18.021Z,19.79
2022-10-17T19:26:27.035Z,19.75
2022-10-17T19:31:32.048Z,19.78
2022-10-17T19:36:35.908Z,19.75
2022-10-17T19:41:40.943Z,19.76
2022-10-17T19:46:46.596Z,19.75
2022-10-17T19:51:49.426Z,19.73
2022-10-17T19:56:53.431Z,19.73
2022-10-17T20:01:56.181Z,19.72
2022-10-17T20:07:00.044Z,19.72
2022-10-17T20:12:04.227Z,19.71
2022-10-17T20:17:06.957Z,19.71
2022-10-17T20:22:09.716Z,19.69
2022-10-17T20:27:13.779Z,19.69
2022-10-17T20:32:16.574Z,19.70
2022-10-17T20:37:19.398Z,19.72
2022-10-17T20:42:23.466Z,19.72
2022-10-17T20:47:43.390Z,19.73
2022-10-17T20:52:47.123Z,19.75
2022-10-17T20:57:53.653Z,19.74
2022-10-17T21:08:04.162Z,19.73
2022-10-17T21:13:08.260Z,19.73
2022-10-17T21:18:11.006Z,19.73
2022-10-17T21:23:13.705Z,19.72
2022-10-17T21:28:17.763Z,19.71
2022-10-17T21:33:20.477Z,19.67
2022-10-17T21:38:23.181Z,19.68
2022-10-17T21:43:27.206Z,19.65
2022-10-17T21:48:30.024Z,19.65
2022-10-17T21:53:33.201Z,19.65
2022-10-17T21:58:37.616Z,19.65
2022-10-17T22:03:45.675Z,19.65
2022-10-17T22:08:49.732Z,19.60
2022-10-17T22:13:56.190Z,19.61
2022-10-17T22:19:03.112Z,19.60
2022-10-17T22:24:09.999Z,19.62
2022-10-17T22:29:14.711Z,19.60
2022-10-17T22:34:18.421Z,19.59
2022-10-17T22:39:21.145Z,19.58
2022-10-17T22:44:25.337Z,19.59
2022-10-17T22:49:28.040Z,19.56
2022-10-17T22:54:30.738Z,19.52
2022-10-17T22:59:34.837Z,19.51
2022-10-17T23:04:37.718Z,19.54
2022-10-17T23:09:40.826Z,19.53
2022-10-17T23:14:44.923Z,19.51
2022-10-17T23:19:47.682Z,19.51
2022-10-17T23:24:50.426Z,19.51
2022-10-17T23:29:54.496Z,19.50
2022-10-17T23:34:57.321Z,19.50
2022-10-17T23:40:00.095Z,19.46
2022-10-17T23:45:04.712Z,19.44
2022-10-17T23:50:08.288Z,19.45
2022-10-17T23:55:11.505Z,19.46
